San Salvador, Argentina
Current Conditions -  °F | °C
As of 1:00 PM on Wednesday 28 Jan 2015 (Local Time) from SUSO Reporting Station
Thunderstorm Thunderstorm  
Wind Chill: 75°   Ceiling: 1300
Heat Index: 75°   Visibility: 5mi
Dew Point: 72°   Wind: 15mph
Humidity: 89%   Direction: 240°WSW
Pressure: 29.77"   Gusts: NA
Location:  31.62°S, 58.5°W
Report Text: SUSO 281600Z 24013KT 8000 TSRA BKN013 FEW040CB BKN060 24/22 Q1008
Loading
Personal Weather Stations






























Interactive Weather Map New forecast layout! Learn more

10-Day Weather Forecast

Advertisements
Track Severe Weather on mobile